Time;durP1;ratioP1;P1;durP2;ratioP2;P2;SDS_P1;SDS_P2;PMS_P1;PMS_P2;Temp;Humidity;BMP_temperature;BMP_pressure;BME280_temperature;BME280_humidity;BME280_pressure;Samples;Min_cycle;Max_cycle;Signal;HPM_P1;HPM_P2
2023/04/06 00:01:44;;;;;;;2.63;1.02;;;;;;;0.47;59.72;99970.13;6270985;28;20057;-75
2023/04/06 00:04:45;;;;;;;1.08;1.00;;;;;;;0.51;60.20;99955.50;6270917;28;20491;-75
2023/04/06 00:07:46;;;;;;;1.33;0.60;;;;;;;0.55;59.77;99960.53;6270425;28;20072;-75
2023/04/06 00:10:47;;;;;;;0.98;0.82;;;;;;;0.56;59.09;99957.13;6253163;28;20465;-75
2023/04/06 00:13:48;;;;;;;0.85;0.82;;;;;;;0.49;59.89;99952.13;6252507;28;20055;-75
2023/04/06 00:16:48;;;;;;;1.05;0.88;;;;;;;0.47;60.15;99953.88;6252684;28;20090;-75
2023/04/06 00:19:50;;;;;;;1.88;1.42;;;;;;;0.39;60.27;99949.78;6252000;28;20053;-75
2023/04/06 00:22:50;;;;;;;0.80;0.50;;;;;;;0.45;60.37;99955.66;6270324;28;20100;-75
2023/04/06 00:25:51;;;;;;;0.95;0.90;;;;;;;0.21;60.88;99950.16;6252738;28;20422;-75
2023/04/06 00:28:52;;;;;;;0.35;0.35;;;;;;;0.35;60.75;99948.16;6270128;28;20049;-75
2023/04/06 00:31:53;;;;;;;1.90;1.23;;;;;;;0.40;60.91;99943.75;6252614;28;20135;-75
2023/04/06 00:34:54;;;;;;;2.92;0.90;;;;;;;0.37;60.28;99935.25;6252377;28;20055;-75
2023/04/06 00:37:55;;;;;;;1.83;1.23;;;;;;;0.26;60.54;99934.66;6269932;28;20053;-75
2023/04/06 00:40:56;;;;;;;2.17;1.08;;;;;;;0.24;60.35;99932.13;6251866;28;20059;-75
2023/04/06 00:43:57;;;;;;;1.10;0.73;;;;;;;0.29;61.56;99935.44;6251853;28;20053;-75
2023/04/06 00:47:00;;;;;;;4.45;1.38;;;;;;;0.33;60.81;99924.25;6269818;28;20102;-75
2023/04/06 00:50:02;;;;;;;1.10;0.82;;;;;;;0.32;60.94;99924.25;6251030;28;20059;-70
2023/04/06 00:53:03;;;;;;;2.28;1.52;;;;;;;0.25;60.74;99926.13;6250760;28;20045;-70
2023/04/06 00:56:04;;;;;;;4.40;1.00;;;;;;;0.22;61.78;99917.63;6250633;28;20041;-69
2023/04/06 00:59:05;;;;;;;1.73;1.20;;;;;;;0.26;61.03;99909.81;6268159;28;20056;-70
2023/04/06 01:02:07;;;;;;;14.90;1.27;;;;;;;0.23;62.10;99916.75;6250822;28;20087;-70
2023/04/06 01:05:10;;;;;;;1.83;1.40;;;;;;;0.16;62.56;99916.03;6268254;28;20600;-70
2023/04/06 01:08:13;;;;;;;1.05;0.98;;;;;;;0.18;62.67;99915.09;6267949;28;20057;-70
2023/04/06 01:11:14;;;;;;;0.60;0.60;;;;;;;0.17;63.19;99915.16;6250550;28;20428;-70
2023/04/06 01:14:17;;;;;;;2.45;1.35;;;;;;;0.13;62.88;99916.09;6267808;28;20106;-70
2023/04/06 01:17:20;;;;;;;0.68;0.68;;;;;;;0.13;63.10;99908.41;6250225;28;20064;-70
2023/04/06 01:20:21;;;;;;;2.72;1.10;;;;;;;0.03;63.32;99906.91;6250029;28;20049;-70
2023/04/06 01:23:23;;;;;;;0.70;0.70;;;;;;;0.08;62.96;99910.22;6267877;28;20049;-69
2023/04/06 01:26:24;;;;;;;1.30;0.90;;;;;;;-0.01;63.45;99913.81;6267699;28;20484;-70
2023/04/06 01:29:25;;;;;;;1.35;1.13;;;;;;;-0.05;64.40;99914.75;6251044;28;20053;-75
2023/04/06 01:32:26;;;;;;;2.95;1.38;;;;;;;0.07;63.71;99896.53;6251227;28;20052;-75
2023/04/06 01:35:30;;;;;;;0.52;0.52;;;;;;;0.04;61.96;99900.88;6268240;28;20509;-70
2023/04/06 01:38:31;;;;;;;3.15;1.23;;;;;;;0.00;63.26;99900.13;6267409;28;20048;-70
2023/04/06 01:41:31;;;;;;;1.63;1.30;;;;;;;-0.02;63.13;99899.31;6250121;28;20049;-70
2023/04/06 01:44:32;;;;;;;1.15;0.77;;;;;;;0.01;62.59;99894.09;6241631;28;20053;-70
2023/04/06 01:47:33;;;;;;;3.03;0.73;;;;;;;0.14;63.16;99889.56;6242666;28;20049;-70
2023/04/06 01:50:34;;;;;;;0.95;0.70;;;;;;;0.25;62.78;99886.75;6241400;28;20049;-70
2023/04/06 01:53:35;;;;;;;0.70;0.70;;;;;;;0.23;63.63;99876.53;6242448;28;20508;-70
2023/04/06 01:56:36;;;;;;;0.98;0.90;;;;;;;-0.10;64.58;99873.81;6242826;28;20057;-69
2023/04/06 01:59:37;;;;;;;1.55;1.20;;;;;;;-0.01;65.76;99875.34;6242430;28;20397;-70
2023/04/06 02:02:38;;;;;;;2.05;1.35;;;;;;;-0.08;65.68;99868.66;6241479;28;20057;-69
2023/04/06 02:05:39;;;;;;;0.90;0.88;;;;;;;-0.25;65.69;99868.97;6242454;28;20489;-70
2023/04/06 02:08:40;;;;;;;4.18;1.08;;;;;;;-0.26;65.94;99863.00;6241455;28;20106;-70
2023/04/06 02:11:40;;;;;;;1.35;1.23;;;;;;;-0.37;66.52;99861.50;6242431;28;20053;-71
2023/04/06 02:14:41;;;;;;;1.20;1.08;;;;;;;-0.18;65.69;99857.72;6241269;28;20048;-70
2023/04/06 02:17:42;;;;;;;2.35;1.38;;;;;;;-0.23;65.99;99854.38;6240919;28;20046;-70
2023/04/06 02:20:44;;;;;;;1.50;1.40;;;;;;;-0.31;66.53;99852.00;6242327;28;20057;-70
2023/04/06 02:23:46;;;;;;;2.53;1.42;;;;;;;-0.30;66.48;99850.28;6242335;28;20049;-70
2023/04/06 02:26:47;;;;;;;1.33;1.20;;;;;;;-0.30;66.96;99851.13;6241045;28;20054;-70
2023/04/06 02:29:48;;;;;;;1.58;0.93;;;;;;;-0.44;67.44;99851.38;6242238;28;20053;-70
2023/04/06 02:32:49;;;;;;;2.25;1.15;;;;;;;-0.31;66.35;99856.25;6240866;28;20144;-70
2023/04/06 02:35:50;;;;;;;1.63;1.17;;;;;;;-0.32;66.63;99852.03;6242206;28;20049;-70
2023/04/06 02:38:51;;;;;;;1.08;0.98;;;;;;;-0.39;67.17;99858.13;6242980;28;20050;-75
2023/04/06 02:41:52;;;;;;;1.35;1.15;;;;;;;-0.28;68.29;99854.50;6244079;28;20053;-75
2023/04/06 02:44:53;;;;;;;2.33;1.20;;;;;;;-0.33;67.27;99850.31;6259817;28;20412;-74
2023/04/06 02:47:53;;;;;;;2.38;0.88;;;;;;;-0.45;67.96;99854.81;6254150;28;20096;-75
2023/04/06 02:50:54;;;;;;;1.08;1.02;;;;;;;-0.46;68.39;99842.03;6254226;28;20052;-75
2023/04/06 02:53:55;;;;;;;0.85;0.85;;;;;;;-0.41;68.65;99853.06;6272006;28;20071;-75
2023/04/06 02:56:58;;;;;;;3.30;1.67;;;;;;;-0.38;68.63;99841.88;6254149;28;20059;-75
2023/04/06 02:59:59;;;;;;;2.35;1.55;;;;;;;-0.58;69.59;99839.69;6271887;28;20061;-75
2023/04/06 03:03:00;;;;;;;1.38;1.27;;;;;;;-0.40;69.36;99836.78;6271879;28;20052;-75
2023/04/06 03:06:01;;;;;;;2.50;1.67;;;;;;;-0.33;69.28;99840.06;6253780;28;20124;-69
2023/04/06 03:09:02;;;;;;;0.88;0.88;;;;;;;-0.52;70.44;99832.72;6253808;28;20053;-74
2023/04/06 03:12:03;;;;;;;1.38;1.27;;;;;;;-0.46;69.71;99830.06;6271647;28;20538;-75
2023/04/06 03:15:05;;;;;;;1.40;1.00;;;;;;;-0.34;70.00;99828.97;6270996;28;20045;-75
2023/04/06 03:18:10;;;;;;;5.43;1.63;;;;;;;-0.44;70.79;99830.03;6270602;28;20496;-70
2023/04/06 03:21:11;;;;;;;2.40;1.35;;;;;;;-0.65;71.48;99829.56;6253048;28;20053;-75
2023/04/06 03:24:13;;;;;;;3.17;1.58;;;;;;;-0.61;70.83;99833.75;6271516;28;20044;-75
2023/04/06 03:27:14;;;;;;;1.13;1.08;;;;;;;-0.30;70.45;99832.34;6253797;28;20044;-75
2023/04/06 03:30:18;;;;;;;0.82;0.82;;;;;;;-0.55;70.69;99832.81;6253771;28;20087;-75
2023/04/06 03:33:19;;;;;;;1.58;1.33;;;;;;;-0.44;70.98;99828.31;6253411;28;20045;-75
2023/04/06 03:36:20;;;;;;;2.05;1.08;;;;;;;-0.42;70.31;99833.41;6253426;28;20057;-75
2023/04/06 03:39:21;;;;;;;1.60;1.10;;;;;;;-0.35;70.00;99835.00;6270876;28;20449;-75
2023/04/06 03:42:21;;;;;;;1.92;1.02;;;;;;;-0.45;71.01;99829.19;6253172;28;20135;-75
2023/04/06 03:45:22;;;;;;;7.45;2.13;;;;;;;-0.30;69.82;99833.16;6252635;28;20612;-70
2023/04/06 03:48:23;;;;;;;1.42;1.33;;;;;;;-0.23;68.88;99832.19;6270641;28;20045;-75
2023/04/06 03:51:25;;;;;;;0.95;0.95;;;;;;;-0.34;69.78;99830.69;6271024;28;20053;-75
2023/04/06 03:54:26;;;;;;;1.77;1.35;;;;;;;-0.34;70.20;99823.00;6270761;28;20045;-75
2023/04/06 03:57:26;;;;;;;1.33;0.85;;;;;;;-0.15;68.58;99824.31;6253441;28;20086;-75
2023/04/06 04:00:30;;;;;;;1.83;1.13;;;;;;;-0.13;68.63;99822.56;6252241;28;20082;-70
2023/04/06 04:03:31;;;;;;;0.60;0.57;;;;;;;-0.08;68.71;99825.06;6269284;28;20411;-70
2023/04/06 04:06:36;;;;;;;1.85;1.08;;;;;;;-0.22;68.25;99820.19;6251778;28;20052;-70
2023/04/06 04:09:44;;;;;;;0.98;0.80;;;;;;;-0.07;68.37;99824.16;6253502;28;20143;-70
2023/04/06 04:12:45;;;;;;;1.02;0.95;;;;;;;0.10;67.97;99823.78;6252203;28;20063;-71
2023/04/06 04:15:48;;;;;;;1.45;0.93;;;;;;;0.18;67.04;99827.88;6269933;28;20404;-70
2023/04/06 04:18:49;;;;;;;4.22;1.30;;;;;;;0.10;67.30;99824.63;6269839;28;20399;-70
2023/04/06 04:21:50;;;;;;;2.20;1.38;;;;;;;0.16;67.51;99826.22;6251491;28;20075;-70
2023/04/06 04:24:51;;;;;;;2.20;1.00;;;;;;;0.25;67.37;99826.03;6251773;28;20059;-70
2023/04/06 04:27:52;;;;;;;0.85;0.85;;;;;;;0.32;66.52;99825.00;6250914;28;20496;-70
2023/04/06 04:30:53;;;;;;;1.02;0.68;;;;;;;0.36;66.31;99828.34;6268855;28;20074;-70
2023/04/06 04:33:53;;;;;;;1.70;0.98;;;;;;;0.45;66.44;99820.41;6250942;28;20045;-70
2023/04/06 04:36:55;;;;;;;1.20;1.10;;;;;;;0.49;65.93;99816.06;6251446;28;20048;-75
2023/04/06 04:39:58;;;;;;;1.83;1.33;;;;;;;0.50;66.49;99815.19;6251868;28;20066;-75
2023/04/06 04:42:59;;;;;;;1.17;1.05;;;;;;;0.49;65.19;99818.63;6269673;28;20113;-75
2023/04/06 04:46:00;;;;;;;2.35;1.30;;;;;;;0.49;65.58;99822.03;6269320;28;20375;-75
2023/04/06 04:49:01;;;;;;;1.98;1.33;;;;;;;0.54;64.46;99822.78;6251750;28;20049;-75
2023/04/06 04:52:02;;;;;;;1.83;1.27;;;;;;;0.62;64.96;99817.47;6250905;28;20056;-70
2023/04/06 04:55:05;;;;;;;7.50;1.63;;;;;;;0.49;65.40;99829.75;6268224;28;20131;-70
2023/04/06 04:58:06;;;;;;;1.50;0.98;;;;;;;0.72;65.43;99830.91;6250727;28;20139;-70
2023/04/06 05:01:08;;;;;;;2.28;1.17;;;;;;;0.75;64.92;99823.16;6267982;28;20423;-70
2023/04/06 05:04:08;;;;;;;4.70;1.20;;;;;;;0.72;64.22;99831.78;6267809;28;20097;-70
2023/04/06 05:07:09;;;;;;;4.40;2.30;;;;;;;0.74;64.74;99832.59;6250543;28;20076;-70
2023/04/06 05:10:10;;;;;;;3.50;2.17;;;;;;;0.92;64.41;99828.72;6251029;28;20057;-75
2023/04/06 05:13:11;;;;;;;2.75;1.60;;;;;;;1.05;64.88;99836.09;6251707;28;20065;-75
2023/04/06 05:16:12;;;;;;;3.80;2.25;;;;;;;1.06;64.69;99843.78;6250235;28;20084;-70
2023/04/06 05:19:13;;;;;;;1.17;1.00;;;;;;;1.03;64.32;99837.88;6267908;28;20045;-70
2023/04/06 05:22:17;;;;;;;1.77;0.90;;;;;;;0.96;66.53;99844.91;6250041;28;20416;-70
2023/04/06 05:25:18;;;;;;;0.60;0.60;;;;;;;0.85;69.43;99846.91;6250250;28;20045;-70
2023/04/06 05:28:19;;;;;;;2.53;1.55;;;;;;;0.75;72.54;99846.28;6250000;28;20073;-70
2023/04/06 05:31:19;;;;;;;1.15;0.55;;;;;;;0.67;73.90;99832.78;6249972;28;20122;-70
2023/04/06 05:34:20;;;;;;;1.55;1.17;;;;;;;0.48;77.70;99840.06;6249878;28;20128;-70
2023/04/06 05:37:21;;;;;;;1.65;0.90;;;;;;;0.22;80.77;99843.22;6267802;28;20098;-70
2023/04/06 05:40:22;;;;;;;0.85;0.85;;;;;;;0.42;82.89;99846.19;6250667;28;20408;-75
2023/04/06 05:43:22;;;;;;;0.90;0.90;;;;;;;0.19;87.29;99847.53;6268796;28;20098;-75
2023/04/06 05:46:23;;;;;;;0.88;0.88;;;;;;;0.04;89.59;99857.28;6250517;28;20058;-74
2023/04/06 05:49:26;;;;;;;1.17;1.13;;;;;;;0.04;91.48;99849.56;6250664;28;20075;-75
2023/04/06 05:52:27;;;;;;;2.10;1.17;;;;;;;-0.05;93.47;99850.63;6250534;28;20060;-75
2023/04/06 05:55:28;;;;;;;1.23;0.93;;;;;;;-0.05;96.49;99851.47;6267872;28;20045;-75
2023/04/06 05:58:32;;;;;;;1.52;1.25;;;;;;;-0.34;99.20;99853.78;6250504;28;20053;-74
2023/04/06 06:01:34;;;;;;;2.13;1.15;;;;;;;-0.10;99.81;99855.00;6267716;28;20492;-75
2023/04/06 06:04:35;;;;;;;1.60;1.23;;;;;;;-0.11;100.00;99850.75;6250524;28;20045;-75
2023/04/06 06:07:36;;;;;;;0.82;0.70;;;;;;;-0.15;100.00;99854.25;6250254;28;20106;-75
2023/04/06 06:10:39;;;;;;;0.65;0.57;;;;;;;0.04;100.00;99855.53;6250165;28;20084;-75
2023/04/06 06:13:42;;;;;;;3.20;1.58;;;;;;;0.05;100.00;99854.69;6249652;28;20415;-75
2023/04/06 06:16:44;;;;;;;0.77;0.75;;;;;;;0.17;100.00;99851.00;6269101;28;20092;-75
2023/04/06 06:19:45;;;;;;;0.65;0.63;;;;;;;-0.01;100.00;99859.94;6271475;28;20257;-75
2023/04/06 06:22:46;;;;;;;0.57;0.57;;;;;;;0.28;100.00;99858.47;6254198;28;20095;-75
2023/04/06 06:25:47;;;;;;;0.52;0.52;;;;;;;0.11;100.00;99858.84;6254014;28;20048;-75
2023/04/06 06:28:48;;;;;;;1.45;1.35;;;;;;;-0.05;100.00;99858.31;6253532;28;20076;-75
2023/04/06 06:31:49;;;;;;;0.68;0.68;;;;;;;0.14;100.00;99859.59;6271294;28;20052;-75
2023/04/06 06:34:50;;;;;;;2.78;1.58;;;;;;;-0.24;100.00;99855.28;6253217;28;20049;-75
2023/04/06 06:37:51;;;;;;;0.75;0.70;;;;;;;-0.13;100.00;99861.03;6253469;28;20053;-75
2023/04/06 06:40:52;;;;;;;0.80;0.80;;;;;;;0.02;100.00;99848.75;6253201;28;20049;-75
2023/04/06 06:43:55;;;;;;;1.15;0.98;;;;;;;0.01;100.00;99850.50;6270841;28;20144;-75
2023/04/06 06:46:56;;;;;;;2.08;1.70;;;;;;;-0.28;100.00;99856.22;6270876;28;20053;-75
2023/04/06 06:49:57;;;;;;;1.90;1.00;;;;;;;-0.08;100.00;99848.13;6270923;28;20069;-75
2023/04/06 06:53:00;;;;;;;3.33;1.27;;;;;;;-0.19;100.00;99855.19;6270605;28;20049;-75
2023/04/06 06:56:04;;;;;;;0.73;0.73;;;;;;;-0.12;100.00;99852.47;6270462;28;20087;-70
2023/04/06 06:59:08;;;;;;;2.90;1.50;;;;;;;-0.10;100.00;99848.16;6270822;28;20045;-70
2023/04/06 07:02:12;;;;;;;1.17;1.08;;;;;;;-0.14;100.00;99859.34;6270380;28;20049;-70
2023/04/06 07:05:13;;;;;;;3.05;2.15;;;;;;;0.10;100.00;99859.72;6270700;27;20052;-76
2023/04/06 07:08:14;;;;;;;2.35;0.82;;;;;;;-0.08;100.00;99851.53;6253351;28;20060;-76
2023/04/06 07:11:15;;;;;;;0.90;0.85;;;;;;;-0.07;100.00;99850.63;6271298;28;20059;-76
2023/04/06 07:14:16;;;;;;;3.30;2.03;;;;;;;-0.01;100.00;99849.69;6253295;28;20094;-76
2023/04/06 07:17:17;;;;;;;2.30;1.15;;;;;;;-0.19;100.00;99850.88;6271366;28;20049;-76
2023/04/06 07:20:18;;;;;;;1.33;1.23;;;;;;;-0.07;100.00;99852.38;6271354;28;20453;-76
2023/04/06 07:23:19;;;;;;;1.40;1.13;;;;;;;-0.22;100.00;99848.41;6272615;28;20080;-76
2023/04/06 07:26:20;;;;;;;4.88;1.42;;;;;;;-0.05;100.00;99854.03;6255831;28;20053;-76
2023/04/06 07:29:21;;;;;;;1.50;1.10;;;;;;;-0.18;100.00;99846.63;6254260;28;20484;-76
2023/04/06 07:32:22;;;;;;;2.80;1.50;;;;;;;-0.25;100.00;99853.56;6255131;28;20053;-76
2023/04/06 07:35:24;;;;;;;4.47;0.80;;;;;;;-0.38;100.00;99857.28;6272321;28;20416;-76
2023/04/06 07:38:25;;;;;;;3.40;1.00;;;;;;;-0.27;100.00;99852.75;6272498;28;20057;-76
2023/04/06 07:41:26;;;;;;;3.00;0.93;;;;;;;-0.30;100.00;99850.28;6254846;28;20057;-76
2023/04/06 07:44:26;;;;;;;1.77;1.27;;;;;;;-0.19;100.00;99845.75;6272497;28;20079;-77
2023/04/06 07:47:27;;;;;;;1.88;1.42;;;;;;;0.05;100.00;99849.56;6272038;28;20115;-76
2023/04/06 07:50:28;;;;;;;2.95;1.00;;;;;;;0.20;100.00;99846.63;6273018;28;20136;-76
2023/04/06 07:53:30;;;;;;;3.15;1.92;;;;;;;0.32;100.00;99845.53;6272157;28;20506;-76
2023/04/06 07:56:31;;;;;;;2.72;1.70;;;;;;;0.42;100.00;99847.91;6254019;28;20522;-77
2023/04/06 07:59:32;;;;;;;1.20;1.10;;;;;;;0.46;100.00;99842.66;6271694;28;20528;-76
2023/04/06 08:02:32;;;;;;;3.53;1.92;;;;;;;0.56;100.00;99851.84;6271712;28;20055;-76
2023/04/06 08:05:33;;;;;;;2.42;1.67;;;;;;;0.34;100.00;99846.34;6253664;28;20464;-77
2023/04/06 08:08:34;;;;;;;1.58;1.48;;;;;;;0.34;100.00;99845.50;6253549;28;20045;-77
2023/04/06 08:11:35;;;;;;;2.22;1.75;;;;;;;0.13;100.00;99849.41;6269522;28;20056;-70
2023/04/06 08:14:38;;;;;;;2.90;2.17;;;;;;;0.40;100.00;99847.94;6269035;28;20563;-71
2023/04/06 08:17:39;;;;;;;1.52;1.42;;;;;;;0.67;100.00;99843.03;6251721;28;20499;-71
2023/04/06 08:20:40;;;;;;;2.25;1.65;;;;;;;0.68;100.00;99847.28;6251396;28;20048;-72
2023/04/06 08:23:41;;;;;;;1.63;1.50;;;;;;;0.43;100.00;99841.88;6268946;28;20511;-71
2023/04/06 08:26:42;;;;;;;2.00;1.63;;;;;;;0.58;100.00;99849.25;6268955;28;20045;-71
2023/04/06 08:29:42;;;;;;;3.28;2.47;;;;;;;0.47;100.00;99840.94;6251029;28;20053;-71
2023/04/06 08:32:43;;;;;;;6.55;2.78;;;;;;;0.34;100.00;99848.91;6251132;28;20108;-71
2023/04/06 08:35:44;;;;;;;2.97;2.10;;;;;;;0.43;100.00;99844.44;6268530;28;20051;-71
2023/04/06 08:38:45;;;;;;;1.50;1.40;;;;;;;0.07;100.00;99850.38;6249981;28;20074;-71
2023/04/06 08:41:46;;;;;;;1.52;1.42;;;;;;;0.19;100.00;99850.09;6268668;28;20459;-71
2023/04/06 08:44:50;;;;;;;1.48;1.15;;;;;;;0.52;100.00;99839.13;6268558;28;20102;-71
2023/04/06 08:47:55;;;;;;;2.08;1.67;;;;;;;0.33;100.00;99839.53;6268462;28;20096;-71
2023/04/06 08:50:56;;;;;;;2.35;1.90;;;;;;;0.37;100.00;99832.59;6250866;28;20053;-72
2023/04/06 08:53:58;;;;;;;2.97;1.85;;;;;;;0.34;100.00;99841.22;6250584;28;20126;-71
2023/04/06 08:57:00;;;;;;;2.33;1.73;;;;;;;0.36;100.00;99843.75;6268145;28;20053;-72
2023/04/06 09:00:02;;;;;;;1.40;1.30;;;;;;;0.47;100.00;99838.38;6268325;28;20060;-71
2023/04/06 09:03:07;;;;;;;1.77;1.30;;;;;;;0.42;100.00;99829.94;6250294;28;20056;-72
2023/04/06 09:06:08;;;;;;;2.80;2.40;;;;;;;0.49;100.00;99836.59;6268370;28;20060;-72
2023/04/06 09:09:09;;;;;;;2.50;1.67;;;;;;;0.37;100.00;99838.59;6250268;28;20045;-72
2023/04/06 09:12:12;;;;;;;6.18;3.35;;;;;;;0.38;100.00;99835.13;6267975;28;20102;-73
2023/04/06 09:15:21;;;;;;;;;;;;;;;0.45;100.00;99828.13;6268656;28;20049;-72
2023/04/06 09:18:30;;;;;;;1.73;1.63;;;;;;;0.76;100.00;99835.09;6250423;28;19921;-73
2023/04/06 09:21:31;;;;;;;3.45;2.78;;;;;;;0.71;100.00;99832.66;6267866;28;20078;-72
2023/04/06 09:24:46;;;;;;;1.90;1.48;;;;;;;0.44;100.00;99831.59;6267738;28;20049;-72
2023/04/06 09:27:47;;;;;;;3.15;2.25;;;;;;;0.78;100.00;99825.63;6250004;28;20177;-72
2023/04/06 09:30:49;;;;;;;2.97;2.35;;;;;;;0.77;100.00;99832.50;6267525;28;20053;-72
2023/04/06 09:33:51;;;;;;;2.00;1.63;;;;;;;0.90;100.00;99832.22;6267475;28;20382;-73
2023/04/06 09:36:55;;;;;;;3.65;2.55;;;;;;;0.73;100.00;99832.63;6267785;28;20045;-73
2023/04/06 09:40:04;;;;;;;2.00;1.73;;;;;;;0.71;100.00;99826.69;6267620;28;20430;-73
2023/04/06 09:43:06;;;;;;;5.40;2.05;;;;;;;0.56;100.00;99822.75;6249735;28;20446;-80
2023/04/06 09:46:07;;;;;;;3.75;2.35;;;;;;;0.46;100.00;99823.84;6249556;28;20103;-80
2023/04/06 09:49:10;;;;;;;3.25;2.22;;;;;;;0.39;100.00;99818.00;6249620;28;20049;-80
2023/04/06 09:52:13;;;;;;;4.53;2.20;;;;;;;0.56;100.00;99826.16;6271299;28;20484;-80
2023/04/06 09:55:20;;;;;;;;;;;;;;;0.63;100.00;99833.72;6272019;28;20049;-81
2023/04/06 09:58:26;;;;;;;1.85;1.45;;;;;;;0.35;100.00;99819.81;6272030;28;19930;-73
2023/04/06 10:01:30;;;;;;;2.72;1.38;;;;;;;0.77;100.00;99821.41;6254151;28;20613;-72
2023/04/06 10:04:41;;;;;;;;;;;;;;;0.85;100.00;99828.91;6272515;28;20053;-72
2023/04/06 10:07:42;;;;;;;1.02;0.93;;;;;;;0.95;100.00;99822.66;6271606;28;19927;-72
2023/04/06 10:10:43;;;;;;;1.58;1.25;;;;;;;0.97;100.00;99823.47;6253975;28;20049;-73
2023/04/06 10:13:49;;;;;;;6.13;1.63;;;;;;;1.01;100.00;99814.81;6271239;28;20053;-73
2023/04/06 10:16:50;;;;;;;3.20;1.80;;;;;;;0.84;100.00;99814.38;6254174;28;20396;-72
2023/04/06 10:19:51;;;;;;;4.03;2.85;;;;;;;1.05;100.00;99818.13;6253675;28;20102;-72
2023/04/06 10:22:58;;;;;;;6.13;3.40;;;;;;;1.03;100.00;99813.03;6253727;28;20446;-72
2023/04/06 10:26:00;;;;;;;4.38;1.92;;;;;;;1.41;100.00;99814.59;6253456;28;20049;-72
2023/04/06 10:29:04;;;;;;;3.38;1.70;;;;;;;1.71;100.00;99816.34;6271151;28;20102;-72
2023/04/06 10:32:05;;;;;;;2.63;2.03;;;;;;;1.12;100.00;99817.94;6253232;28;20412;-72
2023/04/06 10:35:11;;;;;;;3.00;2.20;;;;;;;0.89;100.00;99815.13;6253050;28;20045;-72
2023/04/06 10:38:14;;;;;;;3.70;2.35;;;;;;;1.06;100.00;99802.66;6271163;28;20092;-72
2023/04/06 10:41:17;;;;;;;2.67;1.98;;;;;;;1.12;100.00;99814.53;6253208;28;20044;-72
2023/04/06 10:44:21;;;;;;;2.08;1.35;;;;;;;0.93;100.00;99803.88;6252989;28;20185;-72
2023/04/06 10:47:22;;;;;;;2.90;2.17;;;;;;;0.88;100.00;99801.41;6252986;28;20415;-72
2023/04/06 10:50:23;;;;;;;2.72;1.80;;;;;;;0.96;100.00;99796.09;6253217;28;20053;-72
2023/04/06 10:53:27;;;;;;;1.95;1.60;;;;;;;0.88;100.00;99810.84;6270604;28;20140;-72
2023/04/06 10:56:30;;;;;;;4.00;2.45;;;;;;;0.99;100.00;99796.84;6252970;28;20045;-72
2023/04/06 10:59:31;;;;;;;2.78;2.22;;;;;;;1.39;100.00;99803.50;6252686;28;20443;-72
2023/04/06 11:02:32;;;;;;;2.28;1.58;;;;;;;1.10;100.00;99798.31;6252376;28;20049;-72
2023/04/06 11:05:33;;;;;;;5.15;2.42;;;;;;;1.04;100.00;99801.03;6252633;28;20049;-72
2023/04/06 11:08:34;;;;;;;4.70;2.42;;;;;;;1.46;100.00;99798.19;6252826;28;20084;-72
2023/04/06 11:11:39;;;;;;;3.67;2.72;;;;;;;1.55;100.00;99803.09;6252671;28;20416;-73
2023/04/06 11:14:41;;;;;;;4.70;2.30;;;;;;;1.94;100.00;99803.66;6270107;28;20049;-73
2023/04/06 11:17:42;;;;;;;5.05;3.28;;;;;;;2.12;100.00;99801.41;6270281;28;20087;-73
2023/04/06 11:20:48;;;;;;;3.03;2.55;;;;;;;1.95;100.00;99800.19;6252422;28;20385;-79
2023/04/06 11:23:48;;;;;;;3.28;2.22;;;;;;;2.01;100.00;99804.31;6252617;28;20049;-72
2023/04/06 11:26:51;;;;;;;5.38;2.38;;;;;;;2.22;100.00;99798.53;6252106;28;20056;-72
2023/04/06 11:29:52;;;;;;;2.58;2.20;;;;;;;1.75;100.00;99797.34;6269989;28;20048;-72
2023/04/06 11:33:01;;;;;;;2.70;1.95;;;;;;;1.96;100.00;99795.91;6252416;28;20507;-72
2023/04/06 11:36:01;;;;;;;4.75;2.03;;;;;;;2.09;100.00;99797.22;6252249;28;20532;-72
2023/04/06 11:39:03;;;;;;;3.58;2.47;;;;;;;2.11;100.00;99787.72;6269841;28;20055;-72
2023/04/06 11:42:06;;;;;;;2.20;1.95;;;;;;;2.03;100.00;99797.41;6252353;28;20049;-73
2023/04/06 11:45:08;;;;;;;3.28;2.53;;;;;;;2.04;100.00;99787.94;6243471;28;20501;-72
2023/04/06 11:48:19;;;;;;;4.20;1.38;;;;;;;1.55;100.00;99793.63;6244871;28;20157;-72
2023/04/06 11:51:26;;;;;;;2.83;2.25;;;;;;;1.84;100.00;99789.38;6244031;28;20057;-72
2023/04/06 11:54:47;;;;;;;2.10;1.60;;;;;;;1.74;100.00;99785.41;6244590;28;20069;-72
2023/04/06 11:57:49;;;;;;;3.67;2.47;;;;;;;1.79;100.00;99789.53;6243539;28;20053;-72
2023/04/06 12:00:50;;;;;;;4.78;3.08;;;;;;;1.48;100.00;99781.81;6243809;28;20054;-72
2023/04/06 12:03:52;;;;;;;4.03;1.98;;;;;;;1.33;100.00;99782.25;6243629;28;20448;-71
2023/04/06 12:06:54;;;;;;;4.05;2.53;;;;;;;1.81;100.00;99781.75;6244480;28;20094;-72
2023/04/06 12:09:58;;;;;;;3.90;2.55;;;;;;;1.88;100.00;99782.44;6243506;28;20049;-72
2023/04/06 12:13:00;;;;;;;1.77;1.67;;;;;;;1.96;100.00;99773.59;6244021;28;20053;-71
2023/04/06 12:16:00;;;;;;;2.42;1.63;;;;;;;1.93;100.00;99783.13;6242353;28;20049;-72
2023/04/06 12:19:01;;;;;;;3.15;2.30;;;;;;;1.71;100.00;99780.31;6243202;28;20084;-72
2023/04/06 12:22:02;;;;;;;3.08;1.35;;;;;;;1.55;100.00;99774.81;6243353;28;20064;-72
2023/04/06 12:25:03;;;;;;;2.72;2.30;;;;;;;1.48;100.00;99780.97;6242992;28;20081;-72
2023/04/06 12:28:05;;;;;;;6.55;2.67;;;;;;;1.20;100.00;99779.19;6243031;28;20398;-72
2023/04/06 12:31:06;;;;;;;2.63;1.80;;;;;;;1.51;100.00;99768.88;6244134;28;20053;-72
2023/04/06 12:34:07;;;;;;;2.20;1.63;;;;;;;1.36;100.00;99774.44;6243982;28;20045;-80
2023/04/06 12:37:07;;;;;;;5.68;1.90;;;;;;;1.53;100.00;99777.41;6242919;28;20073;-80
2023/04/06 12:40:10;;;;;;;3.30;1.98;;;;;;;1.66;100.00;99775.31;6243965;28;20064;-80
2023/04/06 12:43:13;;;;;;;3.00;2.00;;;;;;;1.71;100.00;99773.47;6243963;28;20094;-79
2023/04/06 12:46:13;;;;;;;3.33;1.88;;;;;;;1.71;100.00;99773.47;6266602;28;20094;-80
2023/04/06 12:49:16;;;;;;;4.65;2.13;;;;;;;1.57;100.00;99763.56;6251025;28;20052;-80
2023/04/06 12:52:17;;;;;;;2.15;1.30;;;;;;;1.50;100.00;99766.34;6250674;28;20052;-79
2023/04/06 12:55:18;;;;;;;4.25;2.33;;;;;;;1.67;100.00;99766.72;6268072;28;20412;-79
2023/04/06 12:58:23;;;;;;;4.20;3.20;;;;;;;1.77;100.00;99765.56;6250676;28;20088;-79
2023/04/06 13:01:27;;;;;;;3.17;1.52;;;;;;;1.80;100.00;99757.75;6268438;28;20136;-79
2023/04/06 13:04:28;;;;;;;2.38;2.15;;;;;;;1.74;100.00;99765.66;6268184;28;20049;-80
2023/04/06 13:07:29;;;;;;;3.50;2.20;;;;;;;2.05;100.00;99761.31;6250309;28;20045;-80
2023/04/06 13:10:32;;;;;;;1.65;1.50;;;;;;;1.94;100.00;99762.50;6250586;28;20049;-80
2023/04/06 13:13:33;;;;;;;8.98;2.63;;;;;;;1.89;100.00;99760.94;6268062;28;20049;-72
2023/04/06 13:16:35;;;;;;;6.45;2.20;;;;;;;1.71;100.00;99763.19;6267856;28;20136;-72
2023/04/06 13:19:35;;;;;;;4.67;2.73;;;;;;;1.56;100.00;99761.88;6268026;28;20105;-72
2023/04/06 13:22:36;;;;;;;5.40;2.25;;;;;;;1.53;100.00;99761.13;6268005;28;20057;-72
2023/04/06 13:25:39;;;;;;;2.03;1.80;;;;;;;1.43;100.00;99760.56;6249573;28;20073;-73
2023/04/06 13:28:41;;;;;;;2.90;2.40;;;;;;;1.35;100.00;99757.34;6249981;28;20505;-72
2023/04/06 13:31:41;;;;;;;6.70;2.55;;;;;;;1.84;100.00;99762.81;6249963;28;20139;-71
2023/04/06 13:34:44;;;;;;;5.28;2.78;;;;;;;1.61;100.00;99762.59;6249957;28;20139;-72
2023/04/06 13:37:45;;;;;;;2.65;2.40;;;;;;;1.54;100.00;99753.34;6267538;28;20060;-72
2023/04/06 13:40:46;;;;;;;2.80;2.20;;;;;;;1.49;100.00;99757.81;6249916;28;20049;-71
2023/04/06 13:43:47;;;;;;;1.98;1.75;;;;;;;1.29;100.00;99752.38;6267454;28;20496;-72
2023/04/06 13:46:53;;;;;;;1.45;1.35;;;;;;;1.50;100.00;99753.50;6249754;28;20563;-72
2023/04/06 13:49:55;;;;;;;2.10;1.90;;;;;;;1.59;100.00;99750.69;6267651;28;20067;-72
2023/04/06 13:52:56;;;;;;;6.33;2.93;;;;;;;1.49;100.00;99752.66;6267520;28;20053;-71
2023/04/06 13:55:56;;;;;;;6.82;2.08;;;;;;;1.47;100.00;99754.44;6267386;28;20041;-72
2023/04/06 13:58:58;;;;;;;4.88;2.28;;;;;;;1.48;100.00;99747.56;6267204;28;20057;-72
2023/04/06 14:01:59;;;;;;;4.70;1.67;;;;;;;1.33;100.00;99738.56;6249743;28;20052;-71
2023/04/06 14:05:03;;;;;;;2.15;1.70;;;;;;;1.22;100.00;99735.47;6267171;28;20068;-71
2023/04/06 14:08:04;;;;;;;1.90;1.35;;;;;;;1.19;100.00;99732.09;6267300;28;20049;-71
2023/04/06 14:11:07;;;;;;;4.28;2.25;;;;;;;1.32;100.00;99737.72;6267070;28;20056;-72
2023/04/06 14:14:09;;;;;;;2.55;2.35;;;;;;;1.51;100.00;99735.47;6267762;28;20098;-78
2023/04/06 14:17:09;;;;;;;1.67;1.58;;;;;;;1.35;100.00;99737.63;6249994;28;20136;-77
2023/04/06 14:20:13;;;;;;;3.42;2.08;;;;;;;1.22;100.00;99731.16;6267775;28;20527;-77